Time;durP1;ratioP1;P1;durP2;ratioP2;P2;SDS_P1;SDS_P2;PMS_P1;PMS_P2;Temp;Humidity;BMP_temperature;BMP_pressure;BME280_temperature;BME280_humidity;BME280_pressure;Samples;Min_cycle;Max_cycle;Signal;HPM_P1;HPM_P2
2021/03/29 00:00:48;;;;;;;3.47;2.20;;;;;;;8.08;76.53;100825.53;5076933;28;20224;-71
2021/03/29 00:03:17;;;;;;;4.90;3.37;;;;;;;8.14;76.17;100824.31;5082734;28;20208;-70
2021/03/29 00:05:44;;;;;;;2.33;1.93;;;;;;;8.22;75.81;100827.41;5074576;28;20690;-71
2021/03/29 00:08:14;;;;;;;2.13;1.20;;;;;;;8.23;76.14;100832.69;5076905;28;20247;-71
2021/03/29 00:10:43;;;;;;;1.63;1.40;;;;;;;8.22;75.89;100828.28;5084234;28;20194;-71
2021/03/29 00:13:12;;;;;;;1.57;1.30;;;;;;;8.19;75.97;100825.78;5084627;28;20295;-71
2021/03/29 00:15:42;;;;;;;7.73;5.13;;;;;;;8.25;75.70;100837.94;5083793;28;20308;-71
2021/03/29 00:18:11;;;;;;;5.03;4.17;;;;;;;8.28;75.59;100835.13;5085427;28;20263;-71
2021/03/29 00:20:40;;;;;;;4.07;1.60;;;;;;;8.23;75.88;100831.81;5080052;28;20193;-71
2021/03/29 00:23:08;;;;;;;1.87;1.77;;;;;;;8.30;75.90;100841.25;5077243;28;20208;-71
2021/03/29 00:25:36;;;;;;;1.73;1.33;;;;;;;8.34;76.12;100846.34;5080085;28;20195;-71
2021/03/29 00:28:05;;;;;;;1.00;1.00;;;;;;;8.24;75.23;100826.38;5080855;28;20217;-71
2021/03/29 00:30:35;;;;;;;1.13;1.10;;;;;;;8.25;75.24;100822.75;5085291;28;20204;-71
2021/03/29 00:33:04;;;;;;;0.90;0.90;;;;;;;8.33;75.71;100847.31;5079965;28;20223;-71
2021/03/29 00:35:34;;;;;;;2.20;1.10;;;;;;;8.34;75.35;100841.00;5080230;28;20245;-71
2021/03/29 00:38:04;;;;;;;1.43;0.80;;;;;;;8.32;75.48;100842.88;5077570;28;20666;-70
2021/03/29 00:40:32;;;;;;;2.37;0.93;;;;;;;8.31;75.46;100833.13;5076687;28;20188;-71
2021/03/29 00:43:08;;;;;;;1.27;0.80;;;;;;;8.24;76.64;100831.72;5080228;28;20572;-71
2021/03/29 00:45:37;;;;;;;1.47;0.97;;;;;;;8.23;76.17;100846.06;5074403;28;20280;-71
2021/03/29 00:48:04;;;;;;;1.10;1.00;;;;;;;8.24;76.08;100850.44;5075220;28;20213;-71
2021/03/29 00:50:38;;;;;;;1.43;0.97;;;;;;;8.18;75.62;100837.44;5085612;28;20223;-71
2021/03/29 00:53:09;;;;;;;1.20;1.10;;;;;;;8.23;75.67;100846.06;5076696;28;20210;-71
2021/03/29 00:55:38;;;;;;;0.70;0.70;;;;;;;8.22;75.67;100844.31;5077874;28;20677;-71
2021/03/29 00:58:06;;;;;;;0.80;0.80;;;;;;;8.19;76.22;100849.84;5079073;28;20256;-70
2021/03/29 01:00:37;;;;;;;1.00;0.90;;;;;;;8.21;75.55;100855.13;5071007;28;21349;-70
2021/03/29 01:03:10;;;;;;;0.87;0.70;;;;;;;8.08;76.82;100845.13;5079677;28;20199;-70
2021/03/29 01:05:38;;;;;;;1.27;0.80;;;;;;;7.81;76.54;100803.00;5080413;28;20526;-70
2021/03/29 01:08:06;;;;;;;1.23;0.47;;;;;;;8.13;76.84;100855.56;5080688;28;20775;-71
2021/03/29 01:10:34;;;;;;;0.73;0.70;;;;;;;8.18;76.08;100850.81;5080938;28;20190;-70
2021/03/29 01:13:05;;;;;;;0.73;0.73;;;;;;;8.19;76.09;100857.88;5083417;28;20214;-71
2021/03/29 01:15:34;;;;;;;2.07;1.07;;;;;;;8.19;76.16;100851.66;5079495;28;20193;-70
2021/03/29 01:18:02;;;;;;;1.40;0.67;;;;;;;8.17;76.48;100851.75;5077813;28;20205;-71
2021/03/29 01:20:38;;;;;;;0.97;0.90;;;;;;;7.93;76.30;100810.31;5083474;28;20674;-70
2021/03/29 01:23:06;;;;;;;0.70;0.70;;;;;;;8.23;76.17;100853.22;5084876;28;20669;-70
2021/03/29 01:25:39;;;;;;;0.93;0.70;;;;;;;8.21;76.19;100855.97;5078611;28;20204;-71
2021/03/29 01:28:10;;;;;;;1.07;0.67;;;;;;;8.21;76.65;100855.13;5079365;28;20631;-71
2021/03/29 01:30:40;;;;;;;0.60;0.60;;;;;;;8.24;77.01;100853.13;5082631;28;20197;-70
2021/03/29 01:33:08;;;;;;;0.60;0.60;;;;;;;8.02;77.04;100821.41;5087255;28;20569;-71
2021/03/29 01:35:39;;;;;;;0.60;0.60;;;;;;;8.26;76.38;100845.88;5077728;28;20344;-71
2021/03/29 01:38:07;;;;;;;1.23;1.07;;;;;;;8.31;75.53;100849.19;5082066;28;20424;-71
2021/03/29 01:40:37;;;;;;;0.60;0.60;;;;;;;8.31;75.71;100862.56;5071294;28;20203;-70
2021/03/29 01:43:06;;;;;;;0.93;0.73;;;;;;;8.34;75.95;100864.22;5079526;28;20205;-71
2021/03/29 01:45:34;;;;;;;0.47;0.47;;;;;;;8.29;75.72;100855.56;5081408;28;20202;-71
2021/03/29 01:48:04;;;;;;;2.43;0.63;;;;;;;8.31;75.74;100870.59;5074460;28;20219;-70
2021/03/29 01:50:34;;;;;;;0.50;0.50;;;;;;;8.16;77.20;100855.38;5072515;28;20574;-71
2021/03/29 01:53:02;;;;;;;0.60;0.60;;;;;;;8.29;76.12;100851.09;5079578;28;20211;-70
2021/03/29 01:55:31;;;;;;;0.50;0.50;;;;;;;8.34;76.05;100858.88;5070926;28;20583;-71
2021/03/29 01:57:58;;;;;;;0.40;0.40;;;;;;;8.21;76.92;100845.28;5071562;28;20624;-71
2021/03/29 02:00:29;;;;;;;0.47;0.47;;;;;;;8.30;76.32;100852.81;5072700;28;20653;-71
2021/03/29 02:02:58;;;;;;;0.37;0.37;;;;;;;8.31;75.58;100854.53;5092310;28;20208;-71
2021/03/29 02:05:26;;;;;;;0.63;0.63;;;;;;;8.33;75.50;100852.66;5069223;28;20592;-69
2021/03/29 02:07:54;;;;;;;0.70;0.70;;;;;;;8.32;75.65;100856.25;5073325;28;20203;-71
2021/03/29 02:10:24;;;;;;;1.70;0.50;;;;;;;8.35;75.81;100850.75;5078702;28;20225;-70
2021/03/29 02:12:53;;;;;;;1999.90;999.90;;;;;;;8.33;75.30;100841.06;5085712;28;20294;-70
2021/03/29 02:15:24;;;;;;;803.50;213.23;;;;;;;8.43;75.14;100853.00;5108080;28;20213;-70
2021/03/29 02:17:54;;;;;;;22.23;12.37;;;;;;;8.44;76.73;100849.38;5075827;28;20289;-70
2021/03/29 02:20:25;;;;;;;7.07;4.63;;;;;;;8.46;76.47;100854.63;5080507;28;20801;-70
2021/03/29 02:22:54;;;;;;;13.97;12.10;;;;;;;8.48;75.62;100855.41;5070089;28;20205;-70
2021/03/29 02:25:23;;;;;;;3.97;3.03;;;;;;;8.48;75.54;100856.25;5079149;28;20279;-71
2021/03/29 02:27:52;;;;;;;2.83;2.00;;;;;;;8.43;76.32;100857.47;5085464;28;20689;-70
2021/03/29 02:30:22;;;;;;;1.70;1.60;;;;;;;8.29;76.09;100842.19;5082742;28;20865;-71
2021/03/29 02:32:50;;;;;;;1.97;1.60;;;;;;;8.42;76.10;100861.97;5077600;28;20214;-70
2021/03/29 02:35:20;;;;;;;1.97;1.40;;;;;;;8.39;75.99;100857.66;5073977;28;20667;-69
2021/03/29 02:37:50;;;;;;;3.90;3.30;;;;;;;8.45;75.74;100867.16;5080503;28;20304;-70
2021/03/29 02:40:21;;;;;;;2.33;1.90;;;;;;;8.44;75.80;100857.41;5076476;28;20214;-70
2021/03/29 02:42:53;;;;;;;0.93;0.93;;;;;;;8.35;75.88;100853.44;5078508;28;20279;-70
2021/03/29 02:45:23;;;;;;;5.17;4.20;;;;;;;8.39;75.69;100856.78;5107283;28;20622;-70
2021/03/29 02:47:50;;;;;;;1.53;1.30;;;;;;;8.42;75.37;100861.09;5086046;28;20203;-70
2021/03/29 02:50:22;;;;;;;0.73;0.73;;;;;;;8.39;76.29;100863.00;5079930;28;20212;-70
2021/03/29 02:52:52;;;;;;;0.60;0.60;;;;;;;8.34;76.07;100848.19;5088873;28;20610;-70
2021/03/29 02:55:21;;;;;;;0.50;0.50;;;;;;;8.37;76.44;100859.56;5086146;28;20279;-70
2021/03/29 02:57:51;;;;;;;0.50;0.50;;;;;;;8.24;75.45;100839.75;5082970;28;20188;-70
2021/03/29 03:00:21;;;;;;;0.60;0.60;;;;;;;8.18;76.19;100839.25;5073389;28;20228;-70
2021/03/29 03:02:51;;;;;;;0.90;0.57;;;;;;;8.32;76.01;100866.97;5079576;28;20528;-69
2021/03/29 03:05:20;;;;;;;0.77;0.63;;;;;;;8.35;75.32;100874.84;5073618;28;20239;-70
2021/03/29 03:07:48;;;;;;;0.40;0.40;;;;;;;8.31;75.53;100873.25;5080996;28;20279;-70
2021/03/29 03:10:16;;;;;;;0.40;0.40;;;;;;;8.28;75.32;100860.06;5075941;28;20687;-70
2021/03/29 03:12:44;;;;;;;0.53;0.53;;;;;;;8.30;75.40;100858.16;5076664;28;20292;-70
2021/03/29 03:15:14;;;;;;;0.33;0.30;;;;;;;8.24;75.54;100845.09;5076251;28;20643;-70
2021/03/29 03:17:42;;;;;;;0.40;0.40;;;;;;;8.18;75.64;100853.47;5083075;28;20189;-70
2021/03/29 03:20:11;;;;;;;0.30;0.30;;;;;;;8.14;75.62;100857.28;5084282;28;20680;-71
2021/03/29 03:22:51;;;;;;;0.43;0.40;;;;;;;8.07;75.47;100853.22;5089789;28;20691;-71
2021/03/29 03:25:23;;;;;;;0.30;0.30;;;;;;;8.02;75.34;100845.47;5081585;28;20210;-71
2021/03/29 03:27:51;;;;;;;1.87;0.70;;;;;;;7.98;75.29;100856.41;5082756;28;20235;-71
2021/03/29 03:30:21;;;;;;;0.40;0.40;;;;;;;7.95;75.37;100856.56;5088927;28;20230;-71
2021/03/29 03:32:48;;;;;;;0.40;0.40;;;;;;;7.94;74.78;100860.19;5086916;28;20283;-70
2021/03/29 03:35:17;;;;;;;1.07;0.40;;;;;;;7.75;75.47;100837.16;5085496;28;20197;-70
2021/03/29 03:37:48;;;;;;;0.40;0.40;;;;;;;7.89;75.00;100872.94;5082026;28;20198;-70
2021/03/29 03:40:18;;;;;;;0.30;0.30;;;;;;;7.88;74.94;100871.22;5080374;28;20528;-70
2021/03/29 03:42:49;;;;;;;0.27;0.27;;;;;;;7.88;75.56;100869.41;5082490;28;20201;-70
2021/03/29 03:45:18;;;;;;;0.47;0.47;;;;;;;7.88;74.95;100871.22;5076594;28;20283;-70
2021/03/29 03:47:45;;;;;;;2.43;0.60;;;;;;;7.84;75.58;100853.63;5073554;28;20336;-71
2021/03/29 03:50:14;;;;;;;2.00;0.70;;;;;;;7.88;74.72;100858.72;5083224;28;20306;-70
2021/03/29 03:52:43;;;;;;;0.80;0.47;;;;;;;7.89;75.22;100862.25;5077089;28;20295;-70
2021/03/29 03:55:14;;;;;;;0.57;0.50;;;;;;;7.89;74.63;100867.59;5087433;28;20281;-71
2021/03/29 03:57:42;;;;;;;0.60;0.60;;;;;;;7.86;74.98;100876.66;5085883;28;20710;-70
2021/03/29 04:00:14;;;;;;;0.40;0.40;;;;;;;7.85;74.77;100866.91;5095726;28;20680;-71
2021/03/29 04:02:41;;;;;;;0.50;0.50;;;;;;;7.74;75.15;100856.81;5083764;28;20652;-70
2021/03/29 04:05:12;;;;;;;0.97;0.53;;;;;;;7.74;76.04;100870.16;5076642;28;20236;-70
2021/03/29 04:07:59;;;;;;;2.00;0.43;;;;;;;7.73;75.70;100868.44;5078649;28;20626;-72
2021/03/29 04:10:37;;;;;;;0.47;0.47;;;;;;;7.76;75.47;100867.41;5082435;28;20223;-72
2021/03/29 04:13:08;;;;;;;0.50;0.50;;;;;;;7.69;75.72;100861.53;5079003;28;20218;-72
2021/03/29 04:15:36;;;;;;;0.93;0.33;;;;;;;7.69;75.75;100866.03;5084932;28;20558;-71
2021/03/29 04:18:04;;;;;;;1.60;0.80;;;;;;;7.63;75.66;100861.84;5075555;28;20570;-70
2021/03/29 04:20:32;;;;;;;1.87;0.53;;;;;;;7.72;75.50;100858.69;5076352;28;20198;-70
2021/03/29 04:22:59;;;;;;;0.50;0.50;;;;;;;7.69;75.86;100866.88;5074616;28;20200;-69
2021/03/29 04:25:27;;;;;;;28.50;20.40;;;;;;;7.67;75.44;100866.09;5079733;28;20279;-70
2021/03/29 04:27:54;;;;;;;1999.90;890.93;;;;;;;7.41;76.18;100834.56;5107962;27;20204;-70
2021/03/29 04:30:23;;;;;;;33.87;14.77;;;;;;;7.54;75.96;100846.31;5075857;28;20230;-70
2021/03/29 04:32:52;;;;;;;7.83;3.70;;;;;;;7.73;77.18;100873.78;5077327;28;20199;-71
2021/03/29 04:35:22;;;;;;;3.53;2.37;;;;;;;7.79;76.98;100878.81;5075049;28;20611;-71
2021/03/29 04:37:51;;;;;;;1.17;1.07;;;;;;;7.83;76.52;100878.63;5083778;28;20290;-71
2021/03/29 04:40:20;;;;;;;6.17;4.70;;;;;;;7.88;75.71;100881.91;5075018;28;20231;-71
2021/03/29 04:42:48;;;;;;;2.63;1.97;;;;;;;7.89;76.57;100875.63;5071923;28;20690;-71
2021/03/29 04:45:16;;;;;;;0.97;0.90;;;;;;;7.90;77.13;100872.00;5101333;27;20276;-71
2021/03/29 04:47:43;;;;;;;1.27;0.80;;;;;;;7.89;77.17;100879.16;5071826;28;20231;-70
2021/03/29 04:50:15;;;;;;;0.93;0.90;;;;;;;7.93;76.90;100874.50;5072356;28;20304;-71
2021/03/29 04:52:42;;;;;;;1.00;0.80;;;;;;;7.95;76.94;100877.94;5072699;28;20204;-70
2021/03/29 04:55:11;;;;;;;1.10;0.97;;;;;;;7.97;76.43;100865.38;5071619;28;20211;-70
2021/03/29 04:57:40;;;;;;;1.57;1.20;;;;;;;7.98;76.20;100867.13;5073490;28;20315;-70
2021/03/29 05:00:09;;;;;;;3.57;1.00;;;;;;;8.03;75.71;100867.72;5071646;28;20285;-71
2021/03/29 05:02:37;;;;;;;1.77;1.63;;;;;;;7.96;76.00;100859.19;5075658;28;20638;-70
2021/03/29 05:05:09;;;;;;;0.70;0.60;;;;;;;7.93;76.45;100859.31;5071373;28;20556;-69
2021/03/29 05:07:37;;;;;;;0.97;0.50;;;;;;;7.99;76.06;100853.66;5072617;28;20196;-69
2021/03/29 05:10:09;;;;;;;0.60;0.60;;;;;;;7.98;75.55;100840.38;5073431;28;20906;-69
2021/03/29 05:12:36;;;;;;;0.33;0.33;;;;;;;7.81;76.89;100851.97;5075005;28;20197;-69
2021/03/29 05:15:05;;;;;;;0.70;0.50;;;;;;;7.81;76.55;100840.44;5072763;28;20207;-70
2021/03/29 05:17:32;;;;;;;0.43;0.43;;;;;;;7.90;76.05;100843.44;5080646;28;20197;-70
2021/03/29 05:20:00;;;;;;;2.83;0.90;;;;;;;7.49;77.27;100802.94;5076900;28;20198;-72
2021/03/29 05:22:27;;;;;;;0.60;0.60;;;;;;;7.87;76.47;100848.97;5075791;28;20191;-70
2021/03/29 05:24:55;;;;;;;2.30;0.73;;;;;;;7.83;77.39;100843.88;5079623;28;20227;-71
2021/03/29 05:27:23;;;;;;;1.53;0.60;;;;;;;7.76;77.97;100846.03;5071032;28;20201;-71
2021/03/29 05:29:50;;;;;;;3.30;0.53;;;;;;;7.86;77.36;100847.25;5072294;28;20247;-70
2021/03/29 05:32:20;;;;;;;0.50;0.37;;;;;;;7.63;77.38;100813.75;5071357;28;20923;-70
2021/03/29 05:34:49;;;;;;;2.30;0.70;;;;;;;7.91;76.92;100845.19;5071943;28;20664;-70
2021/03/29 05:37:18;;;;;;;1.23;0.50;;;;;;;7.76;77.99;100827.31;5072658;28;20205;-71
2021/03/29 05:39:45;;;;;;;3.33;0.67;;;;;;;7.83;77.68;100847.41;5069544;28;20216;-70
2021/03/29 05:42:18;;;;;;;3.67;0.80;;;;;;;7.84;78.08;100845.59;5069099;28;20741;-70
2021/03/29 05:44:46;;;;;;;0.60;0.60;;;;;;;7.78;78.20;100850.34;5072049;28;20225;-71
2021/03/29 05:47:16;;;;;;;1.23;0.50;;;;;;;7.68;78.94;100830.41;5077865;28;20658;-70
2021/03/29 05:49:43;;;;;;;2.80;0.50;;;;;;;7.83;78.71;100825.16;5071831;28;20251;-70
2021/03/29 05:52:11;;;;;;;0.40;0.40;;;;;;;7.95;78.06;100827.16;5069040;28;20200;-69
2021/03/29 05:54:39;;;;;;;1.33;0.70;;;;;;;7.79;78.22;100795.94;5067677;28;20213;-69
2021/03/29 05:57:07;;;;;;;0.50;0.50;;;;;;;7.85;79.01;100826.81;5071579;28;20330;-70
2021/03/29 05:59:40;;;;;;;0.57;0.43;;;;;;;7.96;78.50;100823.53;5072013;28;20211;-69
2021/03/29 06:02:08;;;;;;;0.57;0.57;;;;;;;8.03;78.20;100828.47;5075159;28;20230;-70
2021/03/29 06:04:44;;;;;;;0.70;0.40;;;;;;;8.20;77.38;100835.53;5074408;28;20624;-70
2021/03/29 06:07:13;;;;;;;0.37;0.37;;;;;;;8.17;77.96;100843.72;5078473;28;20295;-70
2021/03/29 06:09:42;;;;;;;1.83;0.70;;;;;;;8.28;77.30;100843.16;5081616;28;20272;-69
2021/03/29 06:12:10;;;;;;;0.50;0.50;;;;;;;8.31;77.44;100841.16;5085040;28;20204;-69
2021/03/29 06:14:38;;;;;;;1.20;0.60;;;;;;;8.39;76.91;100844.28;5078211;28;20280;-70
2021/03/29 06:17:06;;;;;;;2.27;0.50;;;;;;;8.36;77.12;100839.09;5077489;28;20220;-70
2021/03/29 06:19:45;;;;;;;0.67;0.67;;;;;;;8.43;76.64;100846.78;5071460;28;20615;-70
2021/03/29 06:22:15;;;;;;;1.03;0.50;;;;;;;8.35;76.97;100840.06;5083472;28;20200;-70
2021/03/29 06:25:08;;;;;;;0.40;0.40;;;;;;;8.38;77.00;100837.22;5078124;28;20199;-70
2021/03/29 06:27:41;;;;;;;0.53;0.50;;;;;;;8.32;77.53;100839.34;5067134;28;20196;-69
2021/03/29 06:30:15;;;;;;;1.33;0.30;;;;;;;8.36;77.16;100836.44;5067112;28;20217;-70
2021/03/29 06:33:01;;;;;;;3.90;0.43;;;;;;;8.25;77.44;100811.19;5076279;28;20227;-70
2021/03/29 06:35:30;;;;;;;0.83;0.40;;;;;;;8.36;77.58;100836.44;5077521;28;20229;-69
2021/03/29 06:38:09;;;;;;;0.57;0.40;;;;;;;8.58;76.55;100840.56;5070217;28;20191;-70
2021/03/29 06:40:39;;;;;;;0.40;0.40;;;;;;;8.43;77.53;100841.44;5069778;28;20202;-69
2021/03/29 06:43:24;;;;;;;275.60;177.03;;;;;;;8.42;77.43;100831.69;5080506;28;20224;-69
2021/03/29 06:45:54;;;;;;;111.57;47.87;;;;;;;8.55;76.67;100843.38;5075962;28;20577;-69
2021/03/29 06:48:24;;;;;;;11.27;4.47;;;;;;;8.56;77.49;100829.06;5074183;28;20242;-69
2021/03/29 06:51:09;;;;;;;7.07;2.93;;;;;;;8.67;77.59;100826.63;5075169;28;20281;-68
2021/03/29 06:53:40;;;;;;;0.97;0.83;;;;;;;8.55;77.52;100830.00;5073153;28;20522;-68
2021/03/29 06:56:35;;;;;;;1.17;0.90;;;;;;;8.58;78.35;100819.16;5084322;28;20295;-68
2021/03/29 06:59:16;;;;;;;0.60;0.60;;;;;;;8.79;77.83;100831.25;5047511;28;20216;-68
2021/03/29 07:01:48;;;;;;;2.07;0.50;;;;;;;8.69;78.07;100827.41;5079297;28;20271;-69
2021/03/29 07:04:19;;;;;;;1.60;0.70;;;;;;;8.86;77.64;100840.63;5071651;28;20193;-68
2021/03/29 07:06:46;;;;;;;0.40;0.40;;;;;;;8.74;78.50;100830.66;5068460;28;20242;-69
2021/03/29 07:09:14;;;;;;;0.40;0.40;;;;;;;8.73;77.61;100812.88;5072514;28;20296;-68
2021/03/29 07:11:44;;;;;;;1.87;1.70;;;;;;;8.97;76.99;100822.13;5091702;28;20292;-68
2021/03/29 07:14:12;;;;;;;1.20;0.80;;;;;;;9.06;77.35;100822.53;5090875;28;20266;-68
2021/03/29 07:16:41;;;;;;;1.93;1.60;;;;;;;9.17;77.13;100817.38;5084502;28;20198;-68
2021/03/29 07:19:09;;;;;;;2.60;2.40;;;;;;;9.32;76.35;100805.72;5085914;28;20228;-68
2021/03/29 07:21:38;;;;;;;1.30;1.20;;;;;;;9.43;76.10;100813.09;5087520;28;20200;-69
2021/03/29 07:24:08;;;;;;;3.13;2.77;;;;;;;9.53;75.93;100812.47;5076772;28;20572;-69
2021/03/29 07:26:39;;;;;;;1.23;1.13;;;;;;;9.57;76.47;100805.09;5082642;28;20210;-68
2021/03/29 07:29:18;;;;;;;0.60;0.60;;;;;;;9.67;76.37;100811.56;5072289;28;20393;-69
2021/03/29 07:31:48;;;;;;;0.70;0.70;;;;;;;9.69;75.11;100808.81;5073427;28;20547;-69
2021/03/29 07:34:17;;;;;;;0.60;0.60;;;;;;;9.78;75.44;100813.56;5082486;28;20194;-69
2021/03/29 07:36:47;;;;;;;3.40;0.80;;;;;;;9.78;76.25;100802.84;5077055;28;20284;-69
2021/03/29 07:39:21;;;;;;;2.93;0.70;;;;;;;9.87;75.46;100805.81;5078481;28;20197;-69
2021/03/29 07:42:10;;;;;;;0.93;0.80;;;;;;;9.99;75.11;100812.22;5077173;28;20215;-69
2021/03/29 07:44:51;;;;;;;1.80;0.90;;;;;;;10.16;74.22;100812.00;5081941;28;20384;-69
2021/03/29 07:47:42;;;;;;;3.90;0.90;;;;;;;10.24;73.98;100812.38;5087528;28;20654;-69
2021/03/29 07:50:16;;;;;;;1.13;0.83;;;;;;;10.30;74.84;100821.00;5087269;28;20231;-69
2021/03/29 07:52:47;;;;;;;0.73;0.73;;;;;;;10.36;74.42;100817.91;5088838;28;20231;-69
2021/03/29 07:55:20;;;;;;;3.03;0.80;;;;;;;10.44;74.79;100813.78;5088828;28;20207;-69
2021/03/29 07:58:10;;;;;;;1.60;1.37;;;;;;;10.58;73.09;100813.69;5075436;28;20280;-69
2021/03/29 08:00:48;;;;;;;1.97;0.90;;;;;;;10.64;73.12;100823.16;5085544;28;20226;-69
2021/03/29 08:03:39;;;;;;;2.33;0.73;;;;;;;10.67;73.21;100817.59;5082364;28;20201;-69
2021/03/29 08:06:07;;;;;;;1.63;0.60;;;;;;;10.64;73.03;100825.84;5070591;28;20233;-69
2021/03/29 08:08:40;;;;;;;1.40;0.53;;;;;;;10.58;73.43;100818.22;5076571;28;20223;-69
2021/03/29 08:11:10;;;;;;;1.33;1.10;;;;;;;10.63;73.75;100824.13;5086345;28;20256;-69
2021/03/29 08:13:39;;;;;;;0.70;0.70;;;;;;;10.58;73.71;100821.75;5086100;28;20608;-69
2021/03/29 08:16:08;;;;;;;0.60;0.50;;;;;;;10.65;74.08;100822.19;5085849;28;20599;-68
2021/03/29 08:19:10;;;;;;;2.13;0.87;;;;;;;10.65;74.35;100821.34;5085092;28;20288;-69
2021/03/29 08:21:50;;;;;;;0.77;0.60;;;;;;;10.66;74.79;100815.88;5090201;28;20551;-69
2021/03/29 08:24:36;;;;;;;0.70;0.50;;;;;;;10.81;74.18;100819.38;5070495;28;20285;-68
2021/03/29 08:27:06;;;;;;;0.63;0.63;;;;;;;10.77;73.58;100804.41;5079299;28;20202;-69
2021/03/29 08:29:35;;;;;;;1.20;1.10;;;;;;;10.93;72.66;100809.59;5070573;28;20302;-68
2021/03/29 08:32:28;;;;;;;1.13;0.50;;;;;;;10.97;73.36;100816.47;5080725;28;20201;-69
2021/03/29 08:35:00;;;;;;;0.77;0.77;;;;;;;10.93;73.66;100807.78;5069361;28;20311;-69
2021/03/29 08:37:31;;;;;;;0.40;0.40;;;;;;;11.00;73.35;100813.59;5070883;28;20455;-69
2021/03/29 08:40:01;;;;;;;0.47;0.47;;;;;;;11.00;74.06;100818.94;5076455;28;20288;-68
2021/03/29 08:42:31;;;;;;;2.53;0.30;;;;;;;11.09;72.06;100821.03;5082763;28;20418;-69
2021/03/29 08:45:01;;;;;;;0.50;0.50;;;;;;;10.99;73.51;100809.16;5072447;28;20211;-69
2021/03/29 08:47:30;;;;;;;0.47;0.47;;;;;;;11.01;73.41;100813.47;5088477;28;20197;-70
2021/03/29 08:49:59;;;;;;;0.50;0.50;;;;;;;10.97;74.59;100819.16;5089289;28;20273;-69
2021/03/29 08:52:38;;;;;;;0.40;0.40;;;;;;;10.90;75.83;100818.72;5074666;28;20197;-69
2021/03/29 08:55:08;;;;;;;20.13;15.77;;;;;;;10.92;73.50;100811.41;5090448;28;20204;-69
2021/03/29 08:57:36;;;;;;;34.40;20.10;;;;;;;10.87;73.70;100822.50;5084025;28;20552;-69
2021/03/29 09:00:10;;;;;;;13.77;7.13;;;;;;;10.93;73.08;100821.19;5081715;28;20257;-69
2021/03/29 09:02:38;;;;;;;3.70;2.53;;;;;;;10.92;73.90;100826.69;5076132;28;20565;-69
2021/03/29 09:05:08;;;;;;;11.83;7.03;;;;;;;11.03;72.78;100826.84;5090295;28;20659;-68
2021/03/29 09:07:40;;;;;;;2.13;1.70;;;;;;;11.11;72.84;100832.53;5073452;28;20232;-69
2021/03/29 09:10:17;;;;;;;0.70;0.70;;;;;;;11.11;73.92;100832.53;5079773;28;20259;-69
2021/03/29 09:12:45;;;;;;;1.27;1.17;;;;;;;11.10;75.00;100836.19;5085048;28;20230;-69
2021/03/29 09:15:14;;;;;;;2.70;2.30;;;;;;;11.02;73.10;100798.22;5086483;28;20674;-68
2021/03/29 09:17:43;;;;;;;1.30;1.20;;;;;;;11.19;74.06;100827.50;5088311;28;20211;-68
2021/03/29 09:20:21;;;;;;;0.90;0.90;;;;;;;11.21;75.06;100830.94;5088033;28;20197;-68
2021/03/29 09:22:48;;;;;;;1.57;0.90;;;;;;;11.18;74.77;100805.13;5083584;28;20202;-68
2021/03/29 09:25:24;;;;;;;1.47;1.37;;;;;;;11.29;73.79;100823.19;5069708;28;20202;-68
2021/03/29 09:28:08;;;;;;;0.80;0.80;;;;;;;11.34;73.00;100818.38;5085805;28;20281;-68
2021/03/29 09:30:36;;;;;;;2.13;2.00;;;;;;;11.39;72.73;100809.97;5088063;28;20587;-69
2021/03/29 09:33:04;;;;;;;2.13;1.77;;;;;;;11.45;72.69;100806.84;5084507;28;20612;-69
2021/03/29 09:35:31;;;;;;;6.73;5.10;;;;;;;11.45;72.79;100810.41;5069247;28;20199;-69
2021/03/29 09:37:58;;;;;;;1.43;1.33;;;;;;;11.48;70.83;100806.63;5083165;28;20210;-68
2021/03/29 09:40:33;;;;;;;0.50;0.50;;;;;;;11.40;72.30;100814.38;5081608;28;20619;-68
2021/03/29 09:43:00;;;;;;;0.50;0.50;;;;;;;11.26;73.09;100820.72;5081786;28;20706;-69
2021/03/29 09:45:29;;;;;;;0.50;0.50;;;;;;;11.23;73.22;100806.63;5083463;28;20288;-69
2021/03/29 09:48:02;;;;;;;0.90;0.60;;;;;;;11.18;73.65;100815.88;5069720;28;20200;-69
2021/03/29 09:50:31;;;;;;;0.83;0.60;;;;;;;11.24;72.19;100811.03;5082787;28;20327;-69
2021/03/29 09:53:13;;;;;;;0.80;0.70;;;;;;;11.34;70.68;100806.75;5068574;28;20676;-69
2021/03/29 09:55:43;;;;;;;0.60;0.60;;;;;;;11.03;72.26;100782.00;5085726;28;20246;-69
2021/03/29 09:58:24;;;;;;;0.73;0.60;;;;;;;11.22;72.99;100813.84;5087902;28;20674;-69
2021/03/29 10:00:54;;;;;;;0.70;0.70;;;;;;;11.30;71.48;100811.47;5073997;28;20281;-69
2021/03/29 10:03:24;;;;;;;0.53;0.53;;;;;;;11.19;74.19;100816.75;5085059;28;20201;-69
2021/03/29 10:05:54;;;;;;;0.67;0.67;;;;;;;11.39;71.11;100812.66;5083402;28;20247;-69
2021/03/29 10:08:30;;;;;;;0.60;0.60;;;;;;;11.42;71.01;100810.63;5085481;28;20200;-69
2021/03/29 10:11:06;;;;;;;0.53;0.53;;;;;;;11.18;72.13;100788.13;5074341;28;20258;-69
2021/03/29 10:13:36;;;;;;;0.87;0.70;;;;;;;11.43;70.84;100806.97;5079178;28;20243;-68
2021/03/29 10:16:17;;;;;;;0.50;0.50;;;;;;;11.48;71.01;100796.75;5080408;28;20747;-68
2021/03/29 10:19:02;;;;;;;0.60;0.60;;;;;;;11.57;69.91;100802.44;5081977;28;20317;-68
2021/03/29 10:21:29;;;;;;;0.50;0.50;;;;;;;11.54;70.32;100799.97;5081770;28;20500;-68
2021/03/29 10:24:14;;;;;;;0.90;0.90;;;;;;;11.57;71.09;100805.13;5069008;28;20201;-68
2021/03/29 10:26:53;;;;;;;0.50;0.50;;;;;;;11.49;70.50;100787.69;5068728;28;20204;-68
2021/03/29 10:29:30;;;;;;;1.37;0.70;;;;;;;11.67;71.08;100814.28;5068626;28;20292;-68
2021/03/29 10:31:57;;;;;;;0.80;0.80;;;;;;;11.72;69.50;100798.66;5070749;28;20215;-68
2021/03/29 10:34:24;;;;;;;0.70;0.70;;;;;;;11.77;70.75;100818.03;5075611;28;20224;-68
2021/03/29 10:36:52;;;;;;;0.70;0.70;;;;;;;11.71;70.88;100805.00;5087691;28;20695;-68
2021/03/29 10:39:19;;;;;;;0.63;0.63;;;;;;;11.80;70.61;100797.16;5087282;28;20200;-69
2021/03/29 10:41:46;;;;;;;1.13;0.60;;;;;;;11.85;70.96;100815.66;5083847;28;20229;-69
2021/03/29 10:44:14;;;;;;;0.60;0.60;;;;;;;11.97;69.54;100813.94;5081238;28;20566;-68
2021/03/29 10:46:42;;;;;;;0.63;0.63;;;;;;;11.94;72.30;100815.03;5087550;28;20201;-69
2021/03/29 10:49:10;;;;;;;0.50;0.50;;;;;;;11.91;71.56;100800.91;5086678;28;20207;-69
2021/03/29 10:51:38;;;;;;;0.70;0.70;;;;;;;11.92;71.80;100800.78;5080284;28;20252;-69
2021/03/29 10:54:05;;;;;;;0.50;0.50;;;;;;;11.94;72.19;100809.63;5087510;28;20255;-69
2021/03/29 10:56:33;;;;;;;0.60;0.60;;;;;;;11.98;72.26;100811.13;5079738;28;20202;-68
2021/03/29 10:59:00;;;;;;;0.57;0.57;;;;;;;11.99;73.71;100802.09;5090160;28;20199;-70
2021/03/29 11:01:28;;;;;;;3.40;0.60;;;;;;;12.03;73.49;100803.56;5089052;28;20949;-69
2021/03/29 11:03:55;;;;;;;0.77;0.77;;;;;;;12.18;72.47;100789.94;5090329;28;20567;-69
2021/03/29 11:06:22;;;;;;;0.80;0.80;;;;;;;12.17;70.73;100755.94;5075431;28;20255;-70
2021/03/29 11:08:49;;;;;;;0.60;0.60;;;;;;;12.40;71.74;100787.41;5080320;28;20203;-69
2021/03/29 11:11:18;;;;;;;0.70;0.70;;;;;;;12.42;71.50;100763.91;5074984;28;20223;-70
2021/03/29 11:13:45;;;;;;;0.53;0.53;;;;;;;12.50;71.16;100769.56;5077686;28;20211;-69
2021/03/29 11:16:14;;;;;;;1.07;0.70;;;;;;;12.74;70.53;100791.09;5078611;28;20202;-69
2021/03/29 11:18:42;;;;;;;1.00;0.70;;;;;;;12.89;69.01;100798.03;5089130;28;20222;-69
2021/03/29 11:21:11;;;;;;;0.60;0.60;;;;;;;12.89;69.62;100802.56;5079176;28;20196;-69
2021/03/29 11:23:38;;;;;;;1.23;0.70;;;;;;;12.82;68.62;100796.75;5076809;28;20206;-69
2021/03/29 11:26:05;;;;;;;0.50;0.50;;;;;;;12.90;68.15;100794.34;5078054;28;20227;-68
2021/03/29 11:28:32;;;;;;;0.50;0.50;;;;;;;12.83;70.17;100779.59;5083744;28;20504;-69
2021/03/29 11:31:00;;;;;;;0.30;0.30;;;;;;;12.80;69.57;100781.69;5083467;28;20250;-69
2021/03/29 11:33:27;;;;;;;0.50;0.43;;;;;;;12.88;70.00;100795.44;5091754;28;20282;-69
2021/03/29 11:35:55;;;;;;;0.70;0.70;;;;;;;12.85;70.30;100791.13;5075059;28;20249;-69
2021/03/29 11:38:22;;;;;;;0.70;0.70;;;;;;;12.81;70.08;100783.41;5084974;28;20198;-69
2021/03/29 11:40:50;;;;;;;0.60;0.60;;;;;;;12.76;69.44;100775.66;5078850;28;20215;-69
2021/03/29 11:43:17;;;;;;;0.73;0.60;;;;;;;12.80;69.46;100787.06;5085100;28;20224;-69
2021/03/29 11:45:45;;;;;;;0.50;0.50;;;;;;;12.88;68.06;100776.59;5078052;28;20199;-69